sensor_id;sensor_type;location;lat;lon;timestamp;temperature;humidity
20815;DHT22;10568;48.176;16.316;2023-05-14T00:02:04;11.60;99.90
20815;DHT22;10568;48.176;16.316;2023-05-14T00:04:33;11.70;99.90
20815;DHT22;10568;48.176;16.316;2023-05-14T00:06:59;11.60;99.90
20815;DHT22;10568;48.176;16.316;2023-05-14T00:09:25;11.60;99.90
20815;DHT22;10568;48.176;16.316;2023-05-14T00:11:51;11.60;99.90
20815;DHT22;10568;48.176;16.316;2023-05-14T00:14:17;11.60;99.90
20815;DHT22;10568;48.176;16.316;2023-05-14T00:16:43;11.60;99.90
20815;DHT22;10568;48.176;16.316;2023-05-14T00:19:09;11.50;99.90
20815;DHT22;10568;48.176;16.316;2023-05-14T00:21:35;11.60;99.90
20815;DHT22;10568;48.176;16.316;2023-05-14T00:24:01;11.50;99.90
20815;DHT22;10568;48.176;16.316;2023-05-14T00:26:27;11.50;99.90
20815;DHT22;10568;48.176;16.316;2023-05-14T00:28:53;11.40;99.90
20815;DHT22;10568;48.176;16.316;2023-05-14T00:31:19;11.40;99.90
20815;DHT22;10568;48.176;16.316;2023-05-14T00:33:44;11.40;99.90
20815;DHT22;10568;48.176;16.316;2023-05-14T00:36:10;11.40;99.90
20815;DHT22;10568;48.176;16.316;2023-05-14T00:38:36;11.30;99.90
20815;DHT22;10568;48.176;16.316;2023-05-14T00:41:02;11.30;99.90
20815;DHT22;10568;48.176;16.316;2023-05-14T00:43:28;11.30;99.90
20815;DHT22;10568;48.176;16.316;2023-05-14T00:45:54;11.30;99.90
20815;DHT22;10568;48.176;16.316;2023-05-14T00:48:21;11.30;99.90
20815;DHT22;10568;48.176;16.316;2023-05-14T00:50:48;11.30;99.90
20815;DHT22;10568;48.176;16.316;2023-05-14T00:53:16;11.30;99.90
20815;DHT22;10568;48.176;16.316;2023-05-14T00:55:48;11.30;99.90
20815;DHT22;10568;48.176;16.316;2023-05-14T00:58:14;11.30;99.90
20815;DHT22;10568;48.176;16.316;2023-05-14T01:00:40;11.30;99.90
20815;DHT22;10568;48.176;16.316;2023-05-14T01:03:07;11.30;99.90
20815;DHT22;10568;48.176;16.316;2023-05-14T01:06:00;11.30;99.90
20815;DHT22;10568;48.176;16.316;2023-05-14T01:11:47;11.40;99.90
20815;DHT22;10568;48.176;16.316;2023-05-14T01:14:29;11.40;99.90
20815;DHT22;10568;48.176;16.316;2023-05-14T01:16:59;11.40;99.90
20815;DHT22;10568;48.176;16.316;2023-05-14T01:19:40;11.40;99.90
20815;DHT22;10568;48.176;16.316;2023-05-14T01:22:06;11.40;99.90
20815;DHT22;10568;48.176;16.316;2023-05-14T01:24:33;11.40;99.90
20815;DHT22;10568;48.176;16.316;2023-05-14T01:27:09;11.40;99.90
20815;DHT22;10568;48.176;16.316;2023-05-14T01:29:41;11.40;99.90
20815;DHT22;10568;48.176;16.316;2023-05-14T01:32:09;11.40;99.90
20815;DHT22;10568;48.176;16.316;2023-05-14T01:34:36;11.40;99.90
20815;DHT22;10568;48.176;16.316;2023-05-14T01:37:04;11.40;99.90
20815;DHT22;10568;48.176;16.316;2023-05-14T01:39:34;11.40;99.90
20815;DHT22;10568;48.176;16.316;2023-05-14T01:42:03;11.40;99.90
20815;DHT22;10568;48.176;16.316;2023-05-14T01:44:30;11.40;99.90
20815;DHT22;10568;48.176;16.316;2023-05-14T01:46:56;11.40;99.90
20815;DHT22;10568;48.176;16.316;2023-05-14T01:49:21;11.40;99.90
20815;DHT22;10568;48.176;16.316;2023-05-14T01:51:47;11.40;99.90
20815;DHT22;10568;48.176;16.316;2023-05-14T01:54:13;11.50;99.90
20815;DHT22;10568;48.176;16.316;2023-05-14T01:56:39;11.40;99.90
20815;DHT22;10568;48.176;16.316;2023-05-14T01:59:04;11.40;99.90
20815;DHT22;10568;48.176;16.316;2023-05-14T02:01:30;11.40;99.90
20815;DHT22;10568;48.176;16.316;2023-05-14T02:03:56;11.40;99.90
20815;DHT22;10568;48.176;16.316;2023-05-14T02:06:22;11.40;99.90
20815;DHT22;10568;48.176;16.316;2023-05-14T02:08:47;11.40;99.90
20815;DHT22;10568;48.176;16.316;2023-05-14T02:11:13;11.40;99.90
20815;DHT22;10568;48.176;16.316;2023-05-14T02:13:39;11.30;99.90
20815;DHT22;10568;48.176;16.316;2023-05-14T02:16:05;11.20;99.90
20815;DHT22;10568;48.176;16.316;2023-05-14T02:18:31;11.20;99.90
20815;DHT22;10568;48.176;16.316;2023-05-14T02:20:56;11.20;99.90
20815;DHT22;10568;48.176;16.316;2023-05-14T02:23:22;11.10;99.90
20815;DHT22;10568;48.176;16.316;2023-05-14T02:25:48;11.10;99.90
20815;DHT22;10568;48.176;16.316;2023-05-14T02:28:13;11.10;99.90
20815;DHT22;10568;48.176;16.316;2023-05-14T02:30:40;11.10;99.90
20815;DHT22;10568;48.176;16.316;2023-05-14T02:33:05;11.10;99.90
20815;DHT22;10568;48.176;16.316;2023-05-14T02:35:31;11.20;99.90
20815;DHT22;10568;48.176;16.316;2023-05-14T02:37:57;11.20;99.90
20815;DHT22;10568;48.176;16.316;2023-05-14T02:40:24;11.20;99.90
20815;DHT22;10568;48.176;16.316;2023-05-14T02:42:50;11.20;99.90
20815;DHT22;10568;48.176;16.316;2023-05-14T02:45:15;11.20;99.90
20815;DHT22;10568;48.176;16.316;2023-05-14T02:47:41;11.20;99.90
20815;DHT22;10568;48.176;16.316;2023-05-14T02:50:08;11.20;99.90
20815;DHT22;10568;48.176;16.316;2023-05-14T02:52:34;11.30;99.90
20815;DHT22;10568;48.176;16.316;2023-05-14T02:55:00;11.30;99.90
20815;DHT22;10568;48.176;16.316;2023-05-14T02:57:26;11.30;99.90
20815;DHT22;10568;48.176;16.316;2023-05-14T02:59:52;11.30;99.90
20815;DHT22;10568;48.176;16.316;2023-05-14T03:02:17;11.30;99.90
20815;DHT22;10568;48.176;16.316;2023-05-14T03:04:43;11.30;99.90
20815;DHT22;10568;48.176;16.316;2023-05-14T03:07:09;11.30;99.90
20815;DHT22;10568;48.176;16.316;2023-05-14T03:09:34;11.30;99.90
20815;DHT22;10568;48.176;16.316;2023-05-14T03:12:00;11.40;99.90
20815;DHT22;10568;48.176;16.316;2023-05-14T03:14:26;11.40;99.90
20815;DHT22;10568;48.176;16.316;2023-05-14T03:16:51;11.40;99.90
20815;DHT22;10568;48.176;16.316;2023-05-14T03:19:17;11.40;99.90
20815;DHT22;10568;48.176;16.316;2023-05-14T03:21:43;11.40;99.90
20815;DHT22;10568;48.176;16.316;2023-05-14T03:24:09;11.40;99.90
20815;DHT22;10568;48.176;16.316;2023-05-14T03:26:35;11.40;99.90
20815;DHT22;10568;48.176;16.316;2023-05-14T03:29:03;11.40;99.90
20815;DHT22;10568;48.176;16.316;2023-05-14T03:31:28;11.40;99.90
20815;DHT22;10568;48.176;16.316;2023-05-14T03:33:54;11.40;99.90
20815;DHT22;10568;48.176;16.316;2023-05-14T03:36:20;11.40;99.90
20815;DHT22;10568;48.176;16.316;2023-05-14T03:38:46;11.40;99.90
20815;DHT22;10568;48.176;16.316;2023-05-14T03:41:12;11.40;99.90
20815;DHT22;10568;48.176;16.316;2023-05-14T03:43:37;11.40;99.90
20815;DHT22;10568;48.176;16.316;2023-05-14T03:46:03;11.40;99.90
20815;DHT22;10568;48.176;16.316;2023-05-14T03:48:29;11.40;99.90
20815;DHT22;10568;48.176;16.316;2023-05-14T03:50:55;11.40;99.90
20815;DHT22;10568;48.176;16.316;2023-05-14T03:53:21;11.50;99.90
20815;DHT22;10568;48.176;16.316;2023-05-14T03:55:46;11.40;99.90
20815;DHT22;10568;48.176;16.316;2023-05-14T03:58:12;11.40;99.90
20815;DHT22;10568;48.176;16.316;2023-05-14T04:00:42;11.40;99.90
20815;DHT22;10568;48.176;16.316;2023-05-14T04:03:07;11.40;99.90
20815;DHT22;10568;48.176;16.316;2023-05-14T04:05:34;11.50;99.90
20815;DHT22;10568;48.176;16.316;2023-05-14T04:08:01;11.50;99.90
20815;DHT22;10568;48.176;16.316;2023-05-14T04:10:26;11.50;99.90
20815;DHT22;10568;48.176;16.316;2023-05-14T04:12:52;11.50;99.90
20815;DHT22;10568;48.176;16.316;2023-05-14T04:15:19;11.50;99.90
20815;DHT22;10568;48.176;16.316;2023-05-14T04:17:45;11.50;99.90
20815;DHT22;10568;48.176;16.316;2023-05-14T04:20:11;11.50;99.90
20815;DHT22;10568;48.176;16.316;2023-05-14T04:22:36;11.50;99.90
20815;DHT22;10568;48.176;16.316;2023-05-14T04:25:02;11.50;99.90
20815;DHT22;10568;48.176;16.316;2023-05-14T04:27:28;11.50;99.90
20815;DHT22;10568;48.176;16.316;2023-05-14T04:29:54;11.50;99.90
20815;DHT22;10568;48.176;16.316;2023-05-14T04:32:20;11.50;99.90
20815;DHT22;10568;48.176;16.316;2023-05-14T04:34:46;11.50;99.90
20815;DHT22;10568;48.176;16.316;2023-05-14T04:37:12;11.60;99.90
20815;DHT22;10568;48.176;16.316;2023-05-14T04:39:37;11.60;99.90
20815;DHT22;10568;48.176;16.316;2023-05-14T04:42:04;11.60;99.90
20815;DHT22;10568;48.176;16.316;2023-05-14T04:44:30;11.60;99.90
20815;DHT22;10568;48.176;16.316;2023-05-14T04:46:56;11.60;99.90
20815;DHT22;10568;48.176;16.316;2023-05-14T04:49:22;11.60;99.90
20815;DHT22;10568;48.176;16.316;2023-05-14T04:51:47;11.60;99.90
20815;DHT22;10568;48.176;16.316;2023-05-14T04:54:13;11.60;99.90
20815;DHT22;10568;48.176;16.316;2023-05-14T04:56:39;11.70;99.90
20815;DHT22;10568;48.176;16.316;2023-05-14T04:59:05;11.70;99.90
20815;DHT22;10568;48.176;16.316;2023-05-14T05:01:31;11.60;99.90
20815;DHT22;10568;48.176;16.316;2023-05-14T05:03:57;11.60;99.90
20815;DHT22;10568;48.176;16.316;2023-05-14T05:06:23;11.60;99.90
20815;DHT22;10568;48.176;16.316;2023-05-14T05:08:48;11.60;99.90
20815;DHT22;10568;48.176;16.316;2023-05-14T05:11:14;11.60;99.90
20815;DHT22;10568;48.176;16.316;2023-05-14T05:13:41;11.60;99.90
20815;DHT22;10568;48.176;16.316;2023-05-14T05:16:07;11.60;99.90
20815;DHT22;10568;48.176;16.316;2023-05-14T05:18:32;11.60;99.90
20815;DHT22;10568;48.176;16.316;2023-05-14T05:20:58;11.60;99.90
20815;DHT22;10568;48.176;16.316;2023-05-14T05:23:24;11.60;99.90
20815;DHT22;10568;48.176;16.316;2023-05-14T05:25:51;11.50;99.90
20815;DHT22;10568;48.176;16.316;2023-05-14T05:28:17;11.60;99.90
20815;DHT22;10568;48.176;16.316;2023-05-14T05:30:43;11.60;99.90
20815;DHT22;10568;48.176;16.316;2023-05-14T05:33:13;11.60;99.90
20815;DHT22;10568;48.176;16.316;2023-05-14T05:35:38;11.60;99.90
20815;DHT22;10568;48.176;16.316;2023-05-14T05:38:04;11.60;99.90
20815;DHT22;10568;48.176;16.316;2023-05-14T05:40:30;11.60;99.90
20815;DHT22;10568;48.176;16.316;2023-05-14T05:42:55;11.70;99.90
20815;DHT22;10568;48.176;16.316;2023-05-14T05:45:21;11.70;99.90
20815;DHT22;10568;48.176;16.316;2023-05-14T05:47:47;11.70;99.90
20815;DHT22;10568;48.176;16.316;2023-05-14T05:50:12;11.70;99.90
20815;DHT22;10568;48.176;16.316;2023-05-14T05:52:39;11.60;99.90
20815;DHT22;10568;48.176;16.316;2023-05-14T05:55:05;11.60;99.90
20815;DHT22;10568;48.176;16.316;2023-05-14T05:57:31;11.60;99.90
20815;DHT22;10568;48.176;16.316;2023-05-14T05:59:57;11.60;99.90
20815;DHT22;10568;48.176;16.316;2023-05-14T06:02:22;11.60;99.90
20815;DHT22;10568;48.176;16.316;2023-05-14T06:04:49;11.50;99.90
20815;DHT22;10568;48.176;16.316;2023-05-14T06:07:16;11.50;99.90
20815;DHT22;10568;48.176;16.316;2023-05-14T06:09:41;11.40;99.90
20815;DHT22;10568;48.176;16.316;2023-05-14T06:12:07;11.40;99.90
20815;DHT22;10568;48.176;16.316;2023-05-14T06:14:33;11.50;99.90
20815;DHT22;10568;48.176;16.316;2023-05-14T06:16:59;11.50;99.90
20815;DHT22;10568;48.176;16.316;2023-05-14T06:19:25;11.40;99.90
20815;DHT22;10568;48.176;16.316;2023-05-14T06:21:51;11.40;99.90
20815;DHT22;10568;48.176;16.316;2023-05-14T06:24:16;11.50;99.90
20815;DHT22;10568;48.176;16.316;2023-05-14T06:26:44;11.40;99.90
20815;DHT22;10568;48.176;16.316;2023-05-14T06:29:10;11.40;99.90
20815;DHT22;10568;48.176;16.316;2023-05-14T06:31:35;11.50;99.90
20815;DHT22;10568;48.176;16.316;2023-05-14T06:34:02;11.40;99.90
20815;DHT22;10568;48.176;16.316;2023-05-14T06:36:27;11.50;99.90
20815;DHT22;10568;48.176;16.316;2023-05-14T06:38:53;11.50;99.90
20815;DHT22;10568;48.176;16.316;2023-05-14T06:41:19;11.50;99.90
20815;DHT22;10568;48.176;16.316;2023-05-14T06:43:46;11.40;99.90
20815;DHT22;10568;48.176;16.316;2023-05-14T06:46:11;11.40;99.90
20815;DHT22;10568;48.176;16.316;2023-05-14T06:48:37;11.40;99.90
20815;DHT22;10568;48.176;16.316;2023-05-14T06:51:03;11.40;99.90
20815;DHT22;10568;48.176;16.316;2023-05-14T06:53:28;11.40;99.90
20815;DHT22;10568;48.176;16.316;2023-05-14T06:55:54;11.40;99.90
20815;DHT22;10568;48.176;16.316;2023-05-14T06:58:20;11.40;99.90
20815;DHT22;10568;48.176;16.316;2023-05-14T07:00:47;11.40;99.90
20815;DHT22;10568;48.176;16.316;2023-05-14T07:03:12;11.40;99.90
20815;DHT22;10568;48.176;16.316;2023-05-14T07:05:38;11.40;99.90
20815;DHT22;10568;48.176;16.316;2023-05-14T07:08:05;11.40;99.90
20815;DHT22;10568;48.176;16.316;2023-05-14T07:10:31;11.40;99.90
20815;DHT22;10568;48.176;16.316;2023-05-14T07:12:57;11.40;99.90
20815;DHT22;10568;48.176;16.316;2023-05-14T07:15:23;11.40;99.90
20815;DHT22;10568;48.176;16.316;2023-05-14T07:17:48;11.30;99.90
20815;DHT22;10568;48.176;16.316;2023-05-14T07:20:14;11.30;99.90
20815;DHT22;10568;48.176;16.316;2023-05-14T07:22:40;11.10;99.90
20815;DHT22;10568;48.176;16.316;2023-05-14T07:25:05;11.20;99.90
20815;DHT22;10568;48.176;16.316;2023-05-14T07:27:32;11.20;99.90
20815;DHT22;10568;48.176;16.316;2023-05-14T07:29:57;11.20;99.90
20815;DHT22;10568;48.176;16.316;2023-05-14T07:32:23;11.20;99.90
20815;DHT22;10568;48.176;16.316;2023-05-14T07:34:49;11.20;99.90
20815;DHT22;10568;48.176;16.316;2023-05-14T07:37:15;11.10;99.90
20815;DHT22;10568;48.176;16.316;2023-05-14T07:39:41;11.10;99.90
20815;DHT22;10568;48.176;16.316;2023-05-14T07:42:06;11.20;99.90
20815;DHT22;10568;48.176;16.316;2023-05-14T07:44:32;11.20;99.90
20815;DHT22;10568;48.176;16.316;2023-05-14T07:46:58;11.30;99.90
20815;DHT22;10568;48.176;16.316;2023-05-14T07:49:23;11.30;99.90
20815;DHT22;10568;48.176;16.316;2023-05-14T07:51:49;11.20;99.90
20815;DHT22;10568;48.176;16.316;2023-05-14T07:54:15;11.20;99.90
20815;DHT22;10568;48.176;16.316;2023-05-14T07:56:41;11.10;99.90
20815;DHT22;10568;48.176;16.316;2023-05-14T07:59:07;11.10;99.90
20815;DHT22;10568;48.176;16.316;2023-05-14T08:01:32;11.10;99.90
20815;DHT22;10568;48.176;16.316;2023-05-14T08:03:58;11.20;99.90
20815;DHT22;10568;48.176;16.316;2023-05-14T08:06:24;11.20;99.90
20815;DHT22;10568;48.176;16.316;2023-05-14T08:08:52;11.20;99.90
20815;DHT22;10568;48.176;16.316;2023-05-14T08:11:17;11.20;99.90
20815;DHT22;10568;48.176;16.316;2023-05-14T08:13:43;11.20;99.90
20815;DHT22;10568;48.176;16.316;2023-05-14T08:16:09;11.30;99.90
20815;DHT22;10568;48.176;16.316;2023-05-14T08:18:35;11.30;99.90
20815;DHT22;10568;48.176;16.316;2023-05-14T08:21:00;11.30;99.90
20815;DHT22;10568;48.176;16.316;2023-05-14T08:23:26;11.20;99.90
20815;DHT22;10568;48.176;16.316;2023-05-14T08:25:52;11.30;99.90
20815;DHT22;10568;48.176;16.316;2023-05-14T08:28:18;11.40;99.90
20815;DHT22;10568;48.176;16.316;2023-05-14T08:30:43;11.30;99.90
20815;DHT22;10568;48.176;16.316;2023-05-14T08:33:09;11.20;99.90
20815;DHT22;10568;48.176;16.316;2023-05-14T08:35:35;11.20;99.90
20815;DHT22;10568;48.176;16.316;2023-05-14T08:38:00;11.20;99.90
20815;DHT22;10568;48.176;16.316;2023-05-14T08:40:26;11.20;99.90
20815;DHT22;10568;48.176;16.316;2023-05-14T08:42:52;11.20;99.90
20815;DHT22;10568;48.176;16.316;2023-05-14T08:45:20;11.20;99.90
20815;DHT22;10568;48.176;16.316;2023-05-14T08:47:50;11.20;99.90
20815;DHT22;10568;48.176;16.316;2023-05-14T08:50:16;11.20;99.90
20815;DHT22;10568;48.176;16.316;2023-05-14T08:52:43;11.20;99.90
20815;DHT22;10568;48.176;16.316;2023-05-14T08:55:09;11.30;99.90
20815;DHT22;10568;48.176;16.316;2023-05-14T08:57:37;11.30;99.90
20815;DHT22;10568;48.176;16.316;2023-05-14T09:00:03;11.20;99.90
20815;DHT22;10568;48.176;16.316;2023-05-14T09:02:36;11.20;99.90
20815;DHT22;10568;48.176;16.316;2023-05-14T09:05:04;11.30;99.90
20815;DHT22;10568;48.176;16.316;2023-05-14T09:07:32;11.30;99.90
20815;DHT22;10568;48.176;16.316;2023-05-14T09:09:58;11.30;99.90
20815;DHT22;10568;48.176;16.316;2023-05-14T09:12:23;11.30;99.90
20815;DHT22;10568;48.176;16.316;2023-05-14T09:14:50;11.20;99.90
20815;DHT22;10568;48.176;16.316;2023-05-14T09:17:17;11.20;99.90
20815;DHT22;10568;48.176;16.316;2023-05-14T09:19:44;11.20;99.90
20815;DHT22;10568;48.176;16.316;2023-05-14T09:22:14;11.10;99.90
20815;DHT22;10568;48.176;16.316;2023-05-14T09:24:40;11.20;99.90
20815;DHT22;10568;48.176;16.316;2023-05-14T09:27:08;11.20;99.90
20815;DHT22;10568;48.176;16.316;2023-05-14T09:29:34;11.20;99.90
20815;DHT22;10568;48.176;16.316;2023-05-14T09:32:01;11.30;99.90
20815;DHT22;10568;48.176;16.316;2023-05-14T09:34:32;11.30;99.90
20815;DHT22;10568;48.176;16.316;2023-05-14T09:37:03;11.40;99.90
20815;DHT22;10568;48.176;16.316;2023-05-14T09:39:30;11.40;99.90
20815;DHT22;10568;48.176;16.316;2023-05-14T09:41:56;11.40;99.90
20815;DHT22;10568;48.176;16.316;2023-05-14T09:44:22;11.40;99.90
20815;DHT22;10568;48.176;16.316;2023-05-14T09:46:49;11.50;99.90
20815;DHT22;10568;48.176;16.316;2023-05-14T09:49:15;11.40;99.90
20815;DHT22;10568;48.176;16.316;2023-05-14T09:51:41;11.40;99.90
20815;DHT22;10568;48.176;16.316;2023-05-14T09:54:07;11.30;99.90
20815;DHT22;10568;48.176;16.316;2023-05-14T09:56:33;11.40;99.90
20815;DHT22;10568;48.176;16.316;2023-05-14T09:59:00;11.40;99.90
20815;DHT22;10568;48.176;16.316;2023-05-14T10:01:27;11.40;99.90
20815;DHT22;10568;48.176;16.316;2023-05-14T10:03:54;11.50;99.90
20815;DHT22;10568;48.176;16.316;2023-05-14T10:06:22;11.50;99.90
20815;DHT22;10568;48.176;16.316;2023-05-14T10:08:55;11.50;99.90
20815;DHT22;10568;48.176;16.316;2023-05-14T10:11:24;11.50;99.90
20815;DHT22;10568;48.176;16.316;2023-05-14T10:14:06;11.50;99.90
20815;DHT22;10568;48.176;16.316;2023-05-14T10:16:36;11.50;99.90
20815;DHT22;10568;48.176;16.316;2023-05-14T10:19:07;11.60;99.90
20815;DHT22;10568;48.176;16.316;2023-05-14T10:21:35;11.60;99.90
20815;DHT22;10568;48.176;16.316;2023-05-14T10:24:02;11.60;99.90
20815;DHT22;10568;48.176;16.316;2023-05-14T10:26:30;11.60;99.90
20815;DHT22;10568;48.176;16.316;2023-05-14T10:28:57;11.50;99.90
20815;DHT22;10568;48.176;16.316;2023-05-14T10:37:18;11.70;99.90
20815;DHT22;10568;48.176;16.316;2023-05-14T10:39:46;11.70;99.90
20815;DHT22;10568;48.176;16.316;2023-05-14T10:47:20;11.70;99.90
20815;DHT22;10568;48.176;16.316;2023-05-14T10:49:46;11.70;99.90
20815;DHT22;10568;48.176;16.316;2023-05-14T10:52:16;11.60;99.90
20815;DHT22;10568;48.176;16.316;2023-05-14T10:54:53;11.70;99.90
20815;DHT22;10568;48.176;16.316;2023-05-14T10:57:30;11.60;99.90
20815;DHT22;10568;48.176;16.316;2023-05-14T10:59:58;11.60;99.90
20815;DHT22;10568;48.176;16.316;2023-05-14T11:04:59;11.80;99.90
20815;DHT22;10568;48.176;16.316;2023-05-14T11:07:41;11.70;99.90
20815;DHT22;10568;48.176;16.316;2023-05-14T11:10:15;11.80;99.90
20815;DHT22;10568;48.176;16.316;2023-05-14T11:12:44;11.90;99.90
20815;DHT22;10568;48.176;16.316;2023-05-14T11:15:20;11.80;99.90
20815;DHT22;10568;48.176;16.316;2023-05-14T11:17:47;11.90;99.90
20815;DHT22;10568;48.176;16.316;2023-05-14T11:20:14;11.90;99.90
20815;DHT22;10568;48.176;16.316;2023-05-14T11:22:42;11.90;99.90
20815;DHT22;10568;48.176;16.316;2023-05-14T11:25:09;12.10;99.90
20815;DHT22;10568;48.176;16.316;2023-05-14T11:27:39;12.10;99.90
20815;DHT22;10568;48.176;16.316;2023-05-14T11:30:15;12.10;99.90
20815;DHT22;10568;48.176;16.316;2023-05-14T11:32:41;12.10;99.90
20815;DHT22;10568;48.176;16.316;2023-05-14T11:35:08;12.10;99.90
20815;DHT22;10568;48.176;16.316;2023-05-14T11:37:33;12.10;99.90
20815;DHT22;10568;48.176;16.316;2023-05-14T11:40:00;12.20;99.90
20815;DHT22;10568;48.176;16.316;2023-05-14T11:42:26;12.30;99.90
20815;DHT22;10568;48.176;16.316;2023-05-14T11:44:52;12.30;99.90
20815;DHT22;10568;48.176;16.316;2023-05-14T11:47:21;12.30;99.90
20815;DHT22;10568;48.176;16.316;2023-05-14T11:49:47;12.40;99.90
20815;DHT22;10568;48.176;16.316;2023-05-14T11:52:14;12.40;99.90
20815;DHT22;10568;48.176;16.316;2023-05-14T11:54:41;12.40;99.90
20815;DHT22;10568;48.176;16.316;2023-05-14T11:57:12;12.30;99.90
20815;DHT22;10568;48.176;16.316;2023-05-14T12:00:06;12.40;99.90
20815;DHT22;10568;48.176;16.316;2023-05-14T12:02:32;12.40;99.90
20815;DHT22;10568;48.176;16.316;2023-05-14T12:04:59;12.40;99.90
20815;DHT22;10568;48.176;16.316;2023-05-14T12:07:28;12.40;99.90
20815;DHT22;10568;48.176;16.316;2023-05-14T12:09:53;12.40;99.90
20815;DHT22;10568;48.176;16.316;2023-05-14T12:12:21;12.40;99.90
20815;DHT22;10568;48.176;16.316;2023-05-14T12:14:48;12.30;99.90
20815;DHT22;10568;48.176;16.316;2023-05-14T12:17:19;12.40;99.90
20815;DHT22;10568;48.176;16.316;2023-05-14T12:19:50;12.30;99.90
20815;DHT22;10568;48.176;16.316;2023-05-14T12:22:20;12.40;99.90
20815;DHT22;10568;48.176;16.316;2023-05-14T12:24:57;12.40;99.90
20815;DHT22;10568;48.176;16.316;2023-05-14T12:27:25;12.40;99.90
20815;DHT22;10568;48.176;16.316;2023-05-14T12:30:02;12.40;99.90
20815;DHT22;10568;48.176;16.316;2023-05-14T12:32:34;12.40;99.90
20815;DHT22;10568;48.176;16.316;2023-05-14T12:35:02;12.50;99.90
20815;DHT22;10568;48.176;16.316;2023-05-14T12:37:28;12.50;99.90
20815;DHT22;10568;48.176;16.316;2023-05-14T12:39:53;12.50;99.90
20815;DHT22;10568;48.176;16.316;2023-05-14T12:42:19;12.60;99.90
20815;DHT22;10568;48.176;16.316;2023-05-14T12:44:45;12.70;99.90
20815;DHT22;10568;48.176;16.316;2023-05-14T12:47:11;12.80;99.90
20815;DHT22;10568;48.176;16.316;2023-05-14T12:49:36;12.70;99.90
20815;DHT22;10568;48.176;16.316;2023-05-14T12:52:03;12.70;99.90
20815;DHT22;10568;48.176;16.316;2023-05-14T12:54:29;12.80;99.90
20815;DHT22;10568;48.176;16.316;2023-05-14T12:56:56;12.80;99.90
20815;DHT22;10568;48.176;16.316;2023-05-14T12:59:22;12.80;99.90
20815;DHT22;10568;48.176;16.316;2023-05-14T13:01:48;12.90;99.90
20815;DHT22;10568;48.176;16.316;2023-05-14T13:04:14;12.90;99.90
20815;DHT22;10568;48.176;16.316;2023-05-14T13:06:40;12.90;99.90
20815;DHT22;10568;48.176;16.316;2023-05-14T13:09:06;12.90;99.90
20815;DHT22;10568;48.176;16.316;2023-05-14T13:11:33;12.80;99.90
20815;DHT22;10568;48.176;16.316;2023-05-14T13:14:00;12.90;99.90
20815;DHT22;10568;48.176;16.316;2023-05-14T13:16:27;12.80;99.90
20815;DHT22;10568;48.176;16.316;2023-05-14T13:18:53;12.80;99.90
20815;DHT22;10568;48.176;16.316;2023-05-14T13:21:19;12.80;99.90
20815;DHT22;10568;48.176;16.316;2023-05-14T13:23:46;12.80;99.90
20815;DHT22;10568;48.176;16.316;2023-05-14T13:26:11;12.80;99.90
20815;DHT22;10568;48.176;16.316;2023-05-14T13:28:37;12.80;99.90
20815;DHT22;10568;48.176;16.316;2023-05-14T13:31:05;12.60;99.90
20815;DHT22;10568;48.176;16.316;2023-05-14T13:33:33;12.80;99.90
20815;DHT22;10568;48.176;16.316;2023-05-14T13:35:59;12.80;99.90
20815;DHT22;10568;48.176;16.316;2023-05-14T13:38:24;12.80;99.90
20815;DHT22;10568;48.176;16.316;2023-05-14T13:40:50;12.90;99.90
20815;DHT22;10568;48.176;16.316;2023-05-14T13:43:16;13.10;99.90
20815;DHT22;10568;48.176;16.316;2023-05-14T13:45:41;13.20;99.90
20815;DHT22;10568;48.176;16.316;2023-05-14T13:48:07;13.20;99.90
20815;DHT22;10568;48.176;16.316;2023-05-14T13:50:33;13.20;99.90
20815;DHT22;10568;48.176;16.316;2023-05-14T13:52:58;13.20;99.90
20815;DHT22;10568;48.176;16.316;2023-05-14T13:55:24;13.20;99.90
20815;DHT22;10568;48.176;16.316;2023-05-14T13:57:50;13.20;99.90
20815;DHT22;10568;48.176;16.316;2023-05-14T14:00:16;13.10;99.90
20815;DHT22;10568;48.176;16.316;2023-05-14T14:02:41;13.10;99.90
20815;DHT22;10568;48.176;16.316;2023-05-14T14:05:07;13.00;99.90
20815;DHT22;10568;48.176;16.316;2023-05-14T14:07:33;12.90;99.90
20815;DHT22;10568;48.176;16.316;2023-05-14T14:09:59;12.90;99.90
20815;DHT22;10568;48.176;16.316;2023-05-14T14:12:26;12.70;99.90
20815;DHT22;10568;48.176;16.316;2023-05-14T14:14:51;12.70;99.90
20815;DHT22;10568;48.176;16.316;2023-05-14T14:17:17;12.60;99.90
20815;DHT22;10568;48.176;16.316;2023-05-14T14:19:43;12.60;99.90
20815;DHT22;10568;48.176;16.316;2023-05-14T14:22:09;12.60;99.90
20815;DHT22;10568;48.176;16.316;2023-05-14T14:24:34;12.60;99.90
20815;DHT22;10568;48.176;16.316;2023-05-14T14:27:00;12.60;99.90
20815;DHT22;10568;48.176;16.316;2023-05-14T14:29:26;12.60;99.90
20815;DHT22;10568;48.176;16.316;2023-05-14T14:31:55;12.50;99.90
20815;DHT22;10568;48.176;16.316;2023-05-14T14:34:21;12.40;99.90
20815;DHT22;10568;48.176;16.316;2023-05-14T14:36:46;12.40;99.90
20815;DHT22;10568;48.176;16.316;2023-05-14T14:39:12;12.20;99.90
20815;DHT22;10568;48.176;16.316;2023-05-14T14:41:38;12.20;99.90
20815;DHT22;10568;48.176;16.316;2023-05-14T14:44:03;12.20;99.90
20815;DHT22;10568;48.176;16.316;2023-05-14T14:46:30;12.10;99.90
20815;DHT22;10568;48.176;16.316;2023-05-14T14:48:56;12.10;99.90
20815;DHT22;10568;48.176;16.316;2023-05-14T14:51:21;12.20;99.90
20815;DHT22;10568;48.176;16.316;2023-05-14T14:53:47;12.30;99.90
20815;DHT22;10568;48.176;16.316;2023-05-14T14:56:13;12.30;99.90
20815;DHT22;10568;48.176;16.316;2023-05-14T14:58:38;12.40;99.90
20815;DHT22;10568;48.176;16.316;2023-05-14T15:01:04;12.40;99.90
20815;DHT22;10568;48.176;16.316;2023-05-14T15:03:30;12.50;99.90
20815;DHT22;10568;48.176;16.316;2023-05-14T15:05:55;12.50;99.90
20815;DHT22;10568;48.176;16.316;2023-05-14T15:08:26;12.50;99.90
20815;DHT22;10568;48.176;16.316;2023-05-14T15:10:52;12.50;99.90
20815;DHT22;10568;48.176;16.316;2023-05-14T15:13:18;12.40;99.90
20815;DHT22;10568;48.176;16.316;2023-05-14T15:15:44;12.40;99.90
20815;DHT22;10568;48.176;16.316;2023-05-14T15:18:09;12.40;99.90
20815;DHT22;10568;48.176;16.316;2023-05-14T15:20:36;12.50;99.90
20815;DHT22;10568;48.176;16.316;2023-05-14T15:23:02;12.50;99.90
20815;DHT22;10568;48.176;16.316;2023-05-14T15:25:27;12.50;99.90
20815;DHT22;10568;48.176;16.316;2023-05-14T15:27:53;12.50;99.90
20815;DHT22;10568;48.176;16.316;2023-05-14T15:30:19;12.50;99.90